sensor_id;sensor_type;location;lat;lon;timestamp;temperature;humidity
53294;DHT22;39181;53.440;5.644;2024-03-08T00:01:48;2.80;99.90
53294;DHT22;39181;53.440;5.644;2024-03-08T00:04:13;2.80;99.90
53294;DHT22;39181;53.440;5.644;2024-03-08T00:06:41;3.10;99.90
53294;DHT22;39181;53.440;5.644;2024-03-08T00:09:06;3.00;99.90
53294;DHT22;39181;53.440;5.644;2024-03-08T00:11:34;3.20;99.90
53294;DHT22;39181;53.440;5.644;2024-03-08T00:14:00;3.10;99.90
53294;DHT22;39181;53.440;5.644;2024-03-08T00:16:26;2.70;99.90
53294;DHT22;39181;53.440;5.644;2024-03-08T00:18:51;2.90;99.90
53294;DHT22;39181;53.440;5.644;2024-03-08T00:21:17;3.10;99.90
53294;DHT22;39181;53.440;5.644;2024-03-08T00:23:43;2.70;99.90
53294;DHT22;39181;53.440;5.644;2024-03-08T00:26:08;2.80;99.90
53294;DHT22;39181;53.440;5.644;2024-03-08T00:28:34;2.80;99.90
53294;DHT22;39181;53.440;5.644;2024-03-08T00:31:00;3.20;99.90
53294;DHT22;39181;53.440;5.644;2024-03-08T00:33:26;2.70;99.90
53294;DHT22;39181;53.440;5.644;2024-03-08T00:35:53;3.20;99.90
53294;DHT22;39181;53.440;5.644;2024-03-08T00:38:19;3.00;99.90
53294;DHT22;39181;53.440;5.644;2024-03-08T00:40:45;3.20;99.90
53294;DHT22;39181;53.440;5.644;2024-03-08T00:43:11;2.60;99.90
53294;DHT22;39181;53.440;5.644;2024-03-08T00:45:36;2.70;99.90
53294;DHT22;39181;53.440;5.644;2024-03-08T00:48:03;2.70;99.90
53294;DHT22;39181;53.440;5.644;2024-03-08T00:50:29;2.80;99.90
53294;DHT22;39181;53.440;5.644;2024-03-08T00:52:55;2.60;99.90
53294;DHT22;39181;53.440;5.644;2024-03-08T00:55:21;2.70;99.90
53294;DHT22;39181;53.440;5.644;2024-03-08T00:57:47;2.70;99.90
53294;DHT22;39181;53.440;5.644;2024-03-08T01:00:13;2.80;99.90
53294;DHT22;39181;53.440;5.644;2024-03-08T01:02:39;2.60;99.90
53294;DHT22;39181;53.440;5.644;2024-03-08T01:05:05;2.60;99.90
53294;DHT22;39181;53.440;5.644;2024-03-08T01:07:33;2.50;99.90
53294;DHT22;39181;53.440;5.644;2024-03-08T01:09:59;2.50;99.90
53294;DHT22;39181;53.440;5.644;2024-03-08T01:12:26;2.60;99.90
53294;DHT22;39181;53.440;5.644;2024-03-08T01:14:51;2.50;99.90
53294;DHT22;39181;53.440;5.644;2024-03-08T01:17:17;2.50;99.90
53294;DHT22;39181;53.440;5.644;2024-03-08T01:19:43;2.50;99.90
53294;DHT22;39181;53.440;5.644;2024-03-08T01:22:10;2.40;99.90
53294;DHT22;39181;53.440;5.644;2024-03-08T01:24:36;2.40;99.90
53294;DHT22;39181;53.440;5.644;2024-03-08T01:27:02;2.40;99.90
53294;DHT22;39181;53.440;5.644;2024-03-08T01:29:28;2.40;99.90
53294;DHT22;39181;53.440;5.644;2024-03-08T01:31:55;2.90;99.90
53294;DHT22;39181;53.440;5.644;2024-03-08T01:34:22;2.80;99.90
53294;DHT22;39181;53.440;5.644;2024-03-08T01:36:48;2.30;99.90
53294;DHT22;39181;53.440;5.644;2024-03-08T01:39:14;2.90;99.90
53294;DHT22;39181;53.440;5.644;2024-03-08T01:41:40;2.50;99.90
53294;DHT22;39181;53.440;5.644;2024-03-08T01:44:06;2.40;99.90
53294;DHT22;39181;53.440;5.644;2024-03-08T01:46:34;2.70;99.90
53294;DHT22;39181;53.440;5.644;2024-03-08T01:49:01;2.30;99.90
53294;DHT22;39181;53.440;5.644;2024-03-08T01:51:28;2.70;99.90
53294;DHT22;39181;53.440;5.644;2024-03-08T01:53:56;2.80;99.90
53294;DHT22;39181;53.440;5.644;2024-03-08T01:56:23;2.50;99.90
53294;DHT22;39181;53.440;5.644;2024-03-08T01:58:50;2.20;99.90
53294;DHT22;39181;53.440;5.644;2024-03-08T02:01:16;2.20;99.90
53294;DHT22;39181;53.440;5.644;2024-03-08T02:03:44;2.50;99.90
53294;DHT22;39181;53.440;5.644;2024-03-08T02:06:13;2.40;99.90
53294;DHT22;39181;53.440;5.644;2024-03-08T02:08:42;2.50;99.90
53294;DHT22;39181;53.440;5.644;2024-03-08T02:11:09;2.60;99.90
53294;DHT22;39181;53.440;5.644;2024-03-08T02:13:34;2.00;99.90
53294;DHT22;39181;53.440;5.644;2024-03-08T02:16:00;2.50;99.90
53294;DHT22;39181;53.440;5.644;2024-03-08T02:18:28;2.30;99.90
53294;DHT22;39181;53.440;5.644;2024-03-08T02:20:58;2.00;99.90
53294;DHT22;39181;53.440;5.644;2024-03-08T02:23:24;2.50;99.90
53294;DHT22;39181;53.440;5.644;2024-03-08T02:25:50;1.90;99.90
53294;DHT22;39181;53.440;5.644;2024-03-08T02:28:16;2.30;99.90
53294;DHT22;39181;53.440;5.644;2024-03-08T02:30:44;2.30;99.90
53294;DHT22;39181;53.440;5.644;2024-03-08T02:33:13;2.00;99.90
53294;DHT22;39181;53.440;5.644;2024-03-08T02:35:43;2.10;99.90
53294;DHT22;39181;53.440;5.644;2024-03-08T02:40:47;2.20;99.90
53294;DHT22;39181;53.440;5.644;2024-03-08T02:43:14;2.20;99.90
53294;DHT22;39181;53.440;5.644;2024-03-08T02:45:40;2.00;99.90
53294;DHT22;39181;53.440;5.644;2024-03-08T02:48:07;1.70;99.90
53294;DHT22;39181;53.440;5.644;2024-03-08T02:50:33;2.10;99.90
53294;DHT22;39181;53.440;5.644;2024-03-08T02:53:00;2.30;99.90
53294;DHT22;39181;53.440;5.644;2024-03-08T02:55:27;2.00;99.90
53294;DHT22;39181;53.440;5.644;2024-03-08T02:57:53;1.90;99.90
53294;DHT22;39181;53.440;5.644;2024-03-08T03:00:22;2.20;99.90
53294;DHT22;39181;53.440;5.644;2024-03-08T03:02:52;2.20;99.90
53294;DHT22;39181;53.440;5.644;2024-03-08T03:05:21;1.90;99.90
53294;DHT22;39181;53.440;5.644;2024-03-08T03:07:46;2.10;99.90
53294;DHT22;39181;53.440;5.644;2024-03-08T03:10:14;2.00;99.90
53294;DHT22;39181;53.440;5.644;2024-03-08T03:12:42;1.60;99.90
53294;DHT22;39181;53.440;5.644;2024-03-08T03:15:08;2.00;99.90
53294;DHT22;39181;53.440;5.644;2024-03-08T03:17:34;2.00;99.90
53294;DHT22;39181;53.440;5.644;2024-03-08T03:19:59;1.50;99.90
53294;DHT22;39181;53.440;5.644;2024-03-08T03:22:30;1.80;99.90
53294;DHT22;39181;53.440;5.644;2024-03-08T03:24:56;1.50;99.90
53294;DHT22;39181;53.440;5.644;2024-03-08T03:27:23;1.80;99.90
53294;DHT22;39181;53.440;5.644;2024-03-08T03:29:50;1.50;99.90
53294;DHT22;39181;53.440;5.644;2024-03-08T03:32:17;1.70;99.90
53294;DHT22;39181;53.440;5.644;2024-03-08T03:34:44;1.70;99.90
53294;DHT22;39181;53.440;5.644;2024-03-08T03:37:10;1.90;99.90
53294;DHT22;39181;53.440;5.644;2024-03-08T03:39:38;1.90;99.90
53294;DHT22;39181;53.440;5.644;2024-03-08T03:42:19;1.90;99.90
53294;DHT22;39181;53.440;5.644;2024-03-08T03:44:48;1.50;99.90
53294;DHT22;39181;53.440;5.644;2024-03-08T03:47:15;1.40;99.90
53294;DHT22;39181;53.440;5.644;2024-03-08T03:49:41;1.70;99.90
53294;DHT22;39181;53.440;5.644;2024-03-08T03:52:07;1.80;99.90
53294;DHT22;39181;53.440;5.644;2024-03-08T03:54:32;1.90;99.90
53294;DHT22;39181;53.440;5.644;2024-03-08T03:56:59;1.40;99.90
53294;DHT22;39181;53.440;5.644;2024-03-08T03:59:26;1.60;99.90
53294;DHT22;39181;53.440;5.644;2024-03-08T04:01:51;1.50;99.90
53294;DHT22;39181;53.440;5.644;2024-03-08T04:04:17;1.50;99.90
53294;DHT22;39181;53.440;5.644;2024-03-08T04:06:43;1.70;99.90
53294;DHT22;39181;53.440;5.644;2024-03-08T04:09:10;1.50;99.90
53294;DHT22;39181;53.440;5.644;2024-03-08T04:11:36;1.60;99.90
53294;DHT22;39181;53.440;5.644;2024-03-08T04:14:02;1.60;99.90
53294;DHT22;39181;53.440;5.644;2024-03-08T04:16:27;1.60;99.90
53294;DHT22;39181;53.440;5.644;2024-03-08T04:18:53;1.80;99.90
53294;DHT22;39181;53.440;5.644;2024-03-08T04:21:19;1.70;99.90
53294;DHT22;39181;53.440;5.644;2024-03-08T04:23:45;1.80;99.90
53294;DHT22;39181;53.440;5.644;2024-03-08T04:26:11;1.40;99.90
53294;DHT22;39181;53.440;5.644;2024-03-08T04:28:37;1.40;99.90
53294;DHT22;39181;53.440;5.644;2024-03-08T04:31:03;1.80;99.90
53294;DHT22;39181;53.440;5.644;2024-03-08T04:33:29;1.40;99.90
53294;DHT22;39181;53.440;5.644;2024-03-08T04:35:55;1.80;99.90
53294;DHT22;39181;53.440;5.644;2024-03-08T04:38:21;1.80;99.90
53294;DHT22;39181;53.440;5.644;2024-03-08T04:40:46;1.50;99.90
53294;DHT22;39181;53.440;5.644;2024-03-08T04:43:12;1.70;99.90
53294;DHT22;39181;53.440;5.644;2024-03-08T04:45:39;1.40;99.90
53294;DHT22;39181;53.440;5.644;2024-03-08T04:48:06;1.60;99.90
53294;DHT22;39181;53.440;5.644;2024-03-08T04:50:33;1.60;99.90
53294;DHT22;39181;53.440;5.644;2024-03-08T04:52:59;1.60;99.90
53294;DHT22;39181;53.440;5.644;2024-03-08T04:55:25;1.40;99.90
53294;DHT22;39181;53.440;5.644;2024-03-08T04:57:50;1.80;99.90
53294;DHT22;39181;53.440;5.644;2024-03-08T05:00:16;1.80;99.90
53294;DHT22;39181;53.440;5.644;2024-03-08T05:02:42;1.50;99.90
53294;DHT22;39181;53.440;5.644;2024-03-08T05:05:08;1.50;99.90
53294;DHT22;39181;53.440;5.644;2024-03-08T05:07:38;1.40;99.90
53294;DHT22;39181;53.440;5.644;2024-03-08T05:10:06;1.40;99.90
53294;DHT22;39181;53.440;5.644;2024-03-08T05:12:35;1.30;99.90
53294;DHT22;39181;53.440;5.644;2024-03-08T05:15:00;1.50;99.90
53294;DHT22;39181;53.440;5.644;2024-03-08T05:17:26;1.70;99.90
53294;DHT22;39181;53.440;5.644;2024-03-08T05:19:52;1.70;99.90
53294;DHT22;39181;53.440;5.644;2024-03-08T05:22:17;1.60;99.90
53294;DHT22;39181;53.440;5.644;2024-03-08T05:24:44;1.40;99.90
53294;DHT22;39181;53.440;5.644;2024-03-08T05:27:09;1.40;99.90
53294;DHT22;39181;53.440;5.644;2024-03-08T05:29:35;1.30;99.90
53294;DHT22;39181;53.440;5.644;2024-03-08T05:32:01;1.30;99.90
53294;DHT22;39181;53.440;5.644;2024-03-08T05:34:28;1.60;99.90
53294;DHT22;39181;53.440;5.644;2024-03-08T05:36:56;1.30;99.90
53294;DHT22;39181;53.440;5.644;2024-03-08T05:39:23;1.50;99.90
53294;DHT22;39181;53.440;5.644;2024-03-08T05:41:49;1.50;99.90
53294;DHT22;39181;53.440;5.644;2024-03-08T05:44:16;1.80;99.90
53294;DHT22;39181;53.440;5.644;2024-03-08T05:46:44;2.30;99.90
53294;DHT22;39181;53.440;5.644;2024-03-08T05:49:10;1.80;99.90
53294;DHT22;39181;53.440;5.644;2024-03-08T05:51:38;1.90;99.90
53294;DHT22;39181;53.440;5.644;2024-03-08T05:54:06;1.80;99.90
53294;DHT22;39181;53.440;5.644;2024-03-08T05:56:32;1.70;99.90
53294;DHT22;39181;53.440;5.644;2024-03-08T05:58:58;1.70;99.90
53294;DHT22;39181;53.440;5.644;2024-03-08T06:01:24;1.90;99.90
53294;DHT22;39181;53.440;5.644;2024-03-08T06:03:50;1.60;99.90
53294;DHT22;39181;53.440;5.644;2024-03-08T06:06:16;1.60;99.90
53294;DHT22;39181;53.440;5.644;2024-03-08T06:08:43;1.60;99.90
53294;DHT22;39181;53.440;5.644;2024-03-08T06:11:09;1.80;99.90
53294;DHT22;39181;53.440;5.644;2024-03-08T06:13:35;1.80;99.90
53294;DHT22;39181;53.440;5.644;2024-03-08T06:16:04;1.60;99.90
53294;DHT22;39181;53.440;5.644;2024-03-08T06:18:30;1.60;99.90
53294;DHT22;39181;53.440;5.644;2024-03-08T06:20:56;1.80;99.90
53294;DHT22;39181;53.440;5.644;2024-03-08T06:23:22;1.60;99.90
53294;DHT22;39181;53.440;5.644;2024-03-08T06:25:48;1.70;99.90
53294;DHT22;39181;53.440;5.644;2024-03-08T06:28:13;1.70;99.90
53294;DHT22;39181;53.440;5.644;2024-03-08T06:30:40;1.80;99.90
53294;DHT22;39181;53.440;5.644;2024-03-08T06:33:05;1.50;99.90
53294;DHT22;39181;53.440;5.644;2024-03-08T06:35:32;1.70;99.90
53294;DHT22;39181;53.440;5.644;2024-03-08T06:37:58;1.70;99.90
53294;DHT22;39181;53.440;5.644;2024-03-08T06:40:24;1.50;99.90
53294;DHT22;39181;53.440;5.644;2024-03-08T06:42:49;1.80;99.90
53294;DHT22;39181;53.440;5.644;2024-03-08T06:45:17;1.60;99.90
53294;DHT22;39181;53.440;5.644;2024-03-08T06:47:46;1.50;99.90
53294;DHT22;39181;53.440;5.644;2024-03-08T06:50:12;1.80;99.90
53294;DHT22;39181;53.440;5.644;2024-03-08T06:52:38;1.50;99.90
53294;DHT22;39181;53.440;5.644;2024-03-08T06:55:04;1.80;99.90
53294;DHT22;39181;53.440;5.644;2024-03-08T06:57:31;1.60;99.90
53294;DHT22;39181;53.440;5.644;2024-03-08T06:59:56;1.70;99.90
53294;DHT22;39181;53.440;5.644;2024-03-08T07:02:23;1.90;99.90
53294;DHT22;39181;53.440;5.644;2024-03-08T07:04:51;1.80;99.90
53294;DHT22;39181;53.440;5.644;2024-03-08T07:07:16;1.70;99.90
53294;DHT22;39181;53.440;5.644;2024-03-08T07:09:46;1.80;99.90
53294;DHT22;39181;53.440;5.644;2024-03-08T07:12:11;2.00;99.90
53294;DHT22;39181;53.440;5.644;2024-03-08T07:14:39;1.80;99.90
53294;DHT22;39181;53.440;5.644;2024-03-08T07:17:07;1.90;99.90
53294;DHT22;39181;53.440;5.644;2024-03-08T07:19:34;2.10;99.90
53294;DHT22;39181;53.440;5.644;2024-03-08T07:22:00;2.20;99.90
53294;DHT22;39181;53.440;5.644;2024-03-08T07:24:26;2.00;99.90
53294;DHT22;39181;53.440;5.644;2024-03-08T07:27:17;2.30;99.90
53294;DHT22;39181;53.440;5.644;2024-03-08T07:29:43;2.30;99.90
53294;DHT22;39181;53.440;5.644;2024-03-08T07:32:09;2.20;99.90
53294;DHT22;39181;53.440;5.644;2024-03-08T07:34:44;2.30;99.90
53294;DHT22;39181;53.440;5.644;2024-03-08T07:37:10;2.30;99.90
53294;DHT22;39181;53.440;5.644;2024-03-08T07:39:37;2.50;99.90
53294;DHT22;39181;53.440;5.644;2024-03-08T07:42:03;2.50;99.90
53294;DHT22;39181;53.440;5.644;2024-03-08T07:44:29;2.80;99.90
53294;DHT22;39181;53.440;5.644;2024-03-08T07:46:56;2.60;99.90
53294;DHT22;39181;53.440;5.644;2024-03-08T07:49:22;2.60;99.90
53294;DHT22;39181;53.440;5.644;2024-03-08T07:51:47;2.80;99.90
53294;DHT22;39181;53.440;5.644;2024-03-08T07:54:14;2.60;99.90
53294;DHT22;39181;53.440;5.644;2024-03-08T07:56:40;2.70;99.90
53294;DHT22;39181;53.440;5.644;2024-03-08T07:59:05;2.70;99.90
53294;DHT22;39181;53.440;5.644;2024-03-08T08:01:32;2.80;99.90
53294;DHT22;39181;53.440;5.644;2024-03-08T08:03:59;2.80;99.90
53294;DHT22;39181;53.440;5.644;2024-03-08T08:06:24;2.80;99.90
53294;DHT22;39181;53.440;5.644;2024-03-08T08:08:51;2.90;99.90
53294;DHT22;39181;53.440;5.644;2024-03-08T08:11:16;3.00;99.90
53294;DHT22;39181;53.440;5.644;2024-03-08T08:13:42;3.00;99.90
53294;DHT22;39181;53.440;5.644;2024-03-08T08:16:09;3.00;99.90
53294;DHT22;39181;53.440;5.644;2024-03-08T08:18:36;3.00;99.90
53294;DHT22;39181;53.440;5.644;2024-03-08T08:21:02;3.00;99.90
53294;DHT22;39181;53.440;5.644;2024-03-08T08:23:28;3.10;99.90
53294;DHT22;39181;53.440;5.644;2024-03-08T08:25:55;3.20;99.90
53294;DHT22;39181;53.440;5.644;2024-03-08T08:28:21;3.30;99.90
53294;DHT22;39181;53.440;5.644;2024-03-08T08:30:46;3.30;99.90
53294;DHT22;39181;53.440;5.644;2024-03-08T08:33:12;3.20;99.90
53294;DHT22;39181;53.440;5.644;2024-03-08T08:35:38;3.30;99.90
53294;DHT22;39181;53.440;5.644;2024-03-08T08:38:04;3.40;99.90
53294;DHT22;39181;53.440;5.644;2024-03-08T08:40:30;3.30;99.90
53294;DHT22;39181;53.440;5.644;2024-03-08T08:42:58;3.40;99.90
53294;DHT22;39181;53.440;5.644;2024-03-08T08:45:23;3.60;99.90
53294;DHT22;39181;53.440;5.644;2024-03-08T08:47:49;3.60;99.90
53294;DHT22;39181;53.440;5.644;2024-03-08T08:50:15;3.60;99.90
53294;DHT22;39181;53.440;5.644;2024-03-08T08:52:42;3.60;99.90
53294;DHT22;39181;53.440;5.644;2024-03-08T08:55:09;3.60;99.90
53294;DHT22;39181;53.440;5.644;2024-03-08T08:57:40;3.70;99.90
53294;DHT22;39181;53.440;5.644;2024-03-08T09:00:06;3.80;99.90
53294;DHT22;39181;53.440;5.644;2024-03-08T09:02:36;3.80;99.90
53294;DHT22;39181;53.440;5.644;2024-03-08T09:05:03;3.90;99.90
53294;DHT22;39181;53.440;5.644;2024-03-08T09:07:29;3.90;99.90
53294;DHT22;39181;53.440;5.644;2024-03-08T09:09:55;3.90;99.90
53294;DHT22;39181;53.440;5.644;2024-03-08T09:12:24;4.00;99.90
53294;DHT22;39181;53.440;5.644;2024-03-08T09:14:49;4.10;99.90
53294;DHT22;39181;53.440;5.644;2024-03-08T09:17:15;4.20;99.90
53294;DHT22;39181;53.440;5.644;2024-03-08T09:19:46;4.20;99.90
53294;DHT22;39181;53.440;5.644;2024-03-08T09:22:13;4.40;99.90
53294;DHT22;39181;53.440;5.644;2024-03-08T09:24:39;4.50;99.90
53294;DHT22;39181;53.440;5.644;2024-03-08T09:27:04;4.40;99.90
53294;DHT22;39181;53.440;5.644;2024-03-08T09:29:30;4.50;99.90
53294;DHT22;39181;53.440;5.644;2024-03-08T09:31:56;4.50;99.90
53294;DHT22;39181;53.440;5.644;2024-03-08T09:34:21;4.50;99.90
53294;DHT22;39181;53.440;5.644;2024-03-08T09:36:47;4.60;99.90
53294;DHT22;39181;53.440;5.644;2024-03-08T09:39:13;4.90;99.90
53294;DHT22;39181;53.440;5.644;2024-03-08T09:41:45;4.60;99.90
53294;DHT22;39181;53.440;5.644;2024-03-08T09:44:14;4.70;99.90
53294;DHT22;39181;53.440;5.644;2024-03-08T09:46:40;4.80;99.90
53294;DHT22;39181;53.440;5.644;2024-03-08T09:49:06;4.70;99.90
53294;DHT22;39181;53.440;5.644;2024-03-08T09:51:34;4.70;99.90
53294;DHT22;39181;53.440;5.644;2024-03-08T09:54:11;4.80;99.90
53294;DHT22;39181;53.440;5.644;2024-03-08T09:56:39;4.80;99.90
53294;DHT22;39181;53.440;5.644;2024-03-08T09:59:07;4.80;99.90
53294;DHT22;39181;53.440;5.644;2024-03-08T10:01:48;4.80;99.90
53294;DHT22;39181;53.440;5.644;2024-03-08T10:04:13;4.70;99.90
53294;DHT22;39181;53.440;5.644;2024-03-08T10:06:40;4.70;99.90
53294;DHT22;39181;53.440;5.644;2024-03-08T10:09:06;4.80;99.90
53294;DHT22;39181;53.440;5.644;2024-03-08T10:11:33;4.90;99.90
53294;DHT22;39181;53.440;5.644;2024-03-08T10:14:00;4.90;99.90
53294;DHT22;39181;53.440;5.644;2024-03-08T10:16:30;5.10;99.90
53294;DHT22;39181;53.440;5.644;2024-03-08T10:18:59;5.10;99.90
53294;DHT22;39181;53.440;5.644;2024-03-08T10:21:26;5.10;99.90
53294;DHT22;39181;53.440;5.644;2024-03-08T10:23:52;5.00;99.90
53294;DHT22;39181;53.440;5.644;2024-03-08T10:26:18;5.10;99.90
53294;DHT22;39181;53.440;5.644;2024-03-08T10:28:50;5.00;99.90
53294;DHT22;39181;53.440;5.644;2024-03-08T10:31:17;5.10;99.90
53294;DHT22;39181;53.440;5.644;2024-03-08T10:33:43;5.10;99.90
53294;DHT22;39181;53.440;5.644;2024-03-08T10:36:10;5.10;99.90
53294;DHT22;39181;53.440;5.644;2024-03-08T10:38:41;5.00;99.90
53294;DHT22;39181;53.440;5.644;2024-03-08T10:41:10;5.00;99.90
53294;DHT22;39181;53.440;5.644;2024-03-08T10:43:50;5.30;99.90
53294;DHT22;39181;53.440;5.644;2024-03-08T10:49:09;5.40;99.90
53294;DHT22;39181;53.440;5.644;2024-03-08T10:51:37;5.30;99.90
53294;DHT22;39181;53.440;5.644;2024-03-08T10:54:04;5.30;99.90
53294;DHT22;39181;53.440;5.644;2024-03-08T10:56:32;5.30;99.90
53294;DHT22;39181;53.440;5.644;2024-03-08T10:58:58;5.50;99.90
53294;DHT22;39181;53.440;5.644;2024-03-08T11:01:24;5.40;99.90
53294;DHT22;39181;53.440;5.644;2024-03-08T11:03:51;5.40;99.90
53294;DHT22;39181;53.440;5.644;2024-03-08T11:06:40;5.40;99.90
53294;DHT22;39181;53.440;5.644;2024-03-08T11:09:31;5.40;99.90
53294;DHT22;39181;53.440;5.644;2024-03-08T11:14:46;5.50;99.90
53294;DHT22;39181;53.440;5.644;2024-03-08T11:17:15;5.40;99.90
53294;DHT22;39181;53.440;5.644;2024-03-08T11:19:49;5.60;99.90
53294;DHT22;39181;53.440;5.644;2024-03-08T11:22:27;5.40;99.90
53294;DHT22;39181;53.440;5.644;2024-03-08T11:24:53;5.60;99.90
53294;DHT22;39181;53.440;5.644;2024-03-08T11:27:29;5.70;99.90
53294;DHT22;39181;53.440;5.644;2024-03-08T11:30:06;5.70;99.90
53294;DHT22;39181;53.440;5.644;2024-03-08T11:32:37;5.80;99.90
53294;DHT22;39181;53.440;5.644;2024-03-08T11:35:07;5.80;99.90
53294;DHT22;39181;53.440;5.644;2024-03-08T11:37:34;5.90;99.90
53294;DHT22;39181;53.440;5.644;2024-03-08T11:40:11;5.80;99.90
53294;DHT22;39181;53.440;5.644;2024-03-08T11:42:40;5.90;99.90
53294;DHT22;39181;53.440;5.644;2024-03-08T11:45:10;6.00;99.90
53294;DHT22;39181;53.440;5.644;2024-03-08T11:47:41;6.10;99.90
53294;DHT22;39181;53.440;5.644;2024-03-08T11:50:07;6.10;99.90
53294;DHT22;39181;53.440;5.644;2024-03-08T11:52:37;6.10;99.90
53294;DHT22;39181;53.440;5.644;2024-03-08T11:55:03;6.20;99.90
53294;DHT22;39181;53.440;5.644;2024-03-08T11:57:30;6.20;99.90
53294;DHT22;39181;53.440;5.644;2024-03-08T11:59:56;6.10;99.90
53294;DHT22;39181;53.440;5.644;2024-03-08T12:02:22;6.10;99.90
53294;DHT22;39181;53.440;5.644;2024-03-08T12:04:56;6.30;99.90
53294;DHT22;39181;53.440;5.644;2024-03-08T12:07:23;6.50;99.90
53294;DHT22;39181;53.440;5.644;2024-03-08T12:12:48;6.60;99.90
53294;DHT22;39181;53.440;5.644;2024-03-08T12:15:22;6.70;99.90
53294;DHT22;39181;53.440;5.644;2024-03-08T12:17:50;6.80;99.90
53294;DHT22;39181;53.440;5.644;2024-03-08T12:20:21;6.80;99.90
53294;DHT22;39181;53.440;5.644;2024-03-08T12:22:47;6.70;99.90
53294;DHT22;39181;53.440;5.644;2024-03-08T12:25:14;6.70;99.90
53294;DHT22;39181;53.440;5.644;2024-03-08T12:27:40;6.80;99.90
53294;DHT22;39181;53.440;5.644;2024-03-08T12:30:26;6.70;99.90
53294;DHT22;39181;53.440;5.644;2024-03-08T12:32:54;6.80;99.90
53294;DHT22;39181;53.440;5.644;2024-03-08T12:35:25;6.90;99.90
53294;DHT22;39181;53.440;5.644;2024-03-08T12:37:56;7.10;99.90
53294;DHT22;39181;53.440;5.644;2024-03-08T12:40:30;7.10;99.90
53294;DHT22;39181;53.440;5.644;2024-03-08T12:43:00;7.10;99.90
53294;DHT22;39181;53.440;5.644;2024-03-08T12:45:26;7.10;99.90
53294;DHT22;39181;53.440;5.644;2024-03-08T12:47:53;7.20;99.90
53294;DHT22;39181;53.440;5.644;2024-03-08T12:50:20;7.20;99.90
53294;DHT22;39181;53.440;5.644;2024-03-08T12:52:46;7.30;99.90
53294;DHT22;39181;53.440;5.644;2024-03-08T12:55:12;7.30;99.90
53294;DHT22;39181;53.440;5.644;2024-03-08T12:57:38;7.40;99.90
53294;DHT22;39181;53.440;5.644;2024-03-08T13:00:05;7.70;99.90
53294;DHT22;39181;53.440;5.644;2024-03-08T13:02:30;7.40;99.90
53294;DHT22;39181;53.440;5.644;2024-03-08T13:04:58;7.40;99.90
53294;DHT22;39181;53.440;5.644;2024-03-08T13:07:25;7.50;99.90
53294;DHT22;39181;53.440;5.644;2024-03-08T13:09:54;7.60;99.90
53294;DHT22;39181;53.440;5.644;2024-03-08T13:12:20;7.60;99.90
53294;DHT22;39181;53.440;5.644;2024-03-08T13:14:47;7.60;99.90
53294;DHT22;39181;53.440;5.644;2024-03-08T13:17:14;7.50;99.90
53294;DHT22;39181;53.440;5.644;2024-03-08T13:19:39;7.60;99.90
53294;DHT22;39181;53.440;5.644;2024-03-08T13:22:05;7.60;99.90
53294;DHT22;39181;53.440;5.644;2024-03-08T13:24:31;7.50;99.90
53294;DHT22;39181;53.440;5.644;2024-03-08T13:26:57;7.50;99.90
53294;DHT22;39181;53.440;5.644;2024-03-08T13:29:25;7.50;99.90
53294;DHT22;39181;53.440;5.644;2024-03-08T13:31:51;7.50;99.90
53294;DHT22;39181;53.440;5.644;2024-03-08T13:34:18;7.50;99.90
53294;DHT22;39181;53.440;5.644;2024-03-08T13:36:44;7.50;99.90
53294;DHT22;39181;53.440;5.644;2024-03-08T13:39:12;7.40;99.90
53294;DHT22;39181;53.440;5.644;2024-03-08T13:41:46;7.40;99.90
53294;DHT22;39181;53.440;5.644;2024-03-08T13:44:12;7.50;99.90
53294;DHT22;39181;53.440;5.644;2024-03-08T13:46:37;7.60;99.90
53294;DHT22;39181;53.440;5.644;2024-03-08T13:49:04;7.60;99.90
53294;DHT22;39181;53.440;5.644;2024-03-08T13:51:35;7.40;99.90
53294;DHT22;39181;53.440;5.644;2024-03-08T13:54:01;7.50;99.90
53294;DHT22;39181;53.440;5.644;2024-03-08T13:56:27;7.50;99.90
53294;DHT22;39181;53.440;5.644;2024-03-08T13:58:55;7.50;99.90
53294;DHT22;39181;53.440;5.644;2024-03-08T14:01:22;7.50;99.90
53294;DHT22;39181;53.440;5.644;2024-03-08T14:03:48;7.50;99.90
53294;DHT22;39181;53.440;5.644;2024-03-08T14:06:14;7.40;99.90
53294;DHT22;39181;53.440;5.644;2024-03-08T14:08:39;7.40;99.90
53294;DHT22;39181;53.440;5.644;2024-03-08T14:11:05;7.30;99.90
53294;DHT22;39181;53.440;5.644;2024-03-08T14:13:43;7.40;99.90
53294;DHT22;39181;53.440;5.644;2024-03-08T14:16:13;7.50;99.90
53294;DHT22;39181;53.440;5.644;2024-03-08T14:18:38;7.50;99.90
53294;DHT22;39181;53.440;5.644;2024-03-08T14:21:05;7.50;99.90
53294;DHT22;39181;53.440;5.644;2024-03-08T14:23:30;7.40;99.90
53294;DHT22;39181;53.440;5.644;2024-03-08T14:25:58;7.40;99.90
53294;DHT22;39181;53.440;5.644;2024-03-08T14:28:25;7.40;99.90
53294;DHT22;39181;53.440;5.644;2024-03-08T14:30:53;7.50;99.90
53294;DHT22;39181;53.440;5.644;2024-03-08T14:33:18;7.40;99.90
53294;DHT22;39181;53.440;5.644;2024-03-08T14:35:44;7.40;99.90
53294;DHT22;39181;53.440;5.644;2024-03-08T14:38:12;7.40;99.90
53294;DHT22;39181;53.440;5.644;2024-03-08T14:40:38;7.40;99.90
53294;DHT22;39181;53.440;5.644;2024-03-08T14:43:04;7.40;99.90
53294;DHT22;39181;53.440;5.644;2024-03-08T14:45:30;7.40;99.90
53294;DHT22;39181;53.440;5.644;2024-03-08T14:47:56;7.40;99.90
53294;DHT22;39181;53.440;5.644;2024-03-08T14:50:23;7.30;99.90
53294;DHT22;39181;53.440;5.644;2024-03-08T14:52:50;7.30;99.90
53294;DHT22;39181;53.440;5.644;2024-03-08T14:55:19;7.30;99.90
53294;DHT22;39181;53.440;5.644;2024-03-08T14:57:50;7.20;99.90
53294;DHT22;39181;53.440;5.644;2024-03-08T15:00:20;7.20;99.90
53294;DHT22;39181;53.440;5.644;2024-03-08T15:02:55;7.20;99.90
53294;DHT22;39181;53.440;5.644;2024-03-08T15:05:22;7.20;99.90
53294;DHT22;39181;53.440;5.644;2024-03-08T15:07:52;7.20;99.90
53294;DHT22;39181;53.440;5.644;2024-03-08T15:10:18;7.20;99.90
53294;DHT22;39181;53.440;5.644;2024-03-08T15:12:48;7.20;99.90
53294;DHT22;39181;53.440;5.644;2024-03-08T15:15:14;7.30;99.90
53294;DHT22;39181;53.440;5.644;2024-03-08T15:17:45;7.30;99.90
53294;DHT22;39181;53.440;5.644;2024-03-08T15:20:13;7.30;99.90
53294;DHT22;39181;53.440;5.644;2024-03-08T15:22:51;7.20;99.90
53294;DHT22;39181;53.440;5.644;2024-03-08T15:25:20;7.20;99.90
53294;DHT22;39181;53.440;5.644;2024-03-08T15:27:54;7.10;99.90
53294;DHT22;39181;53.440;5.644;2024-03-08T15:30:20;7.20;99.90
53294;DHT22;39181;53.440;5.644;2024-03-08T15:32:52;7.20;99.90
53294;DHT22;39181;53.440;5.644;2024-03-08T15:35:25;7.20;99.90
53294;DHT22;39181;53.440;5.644;2024-03-08T15:37:51;7.20;99.90
53294;DHT22;39181;53.440;5.644;2024-03-08T15:40:18;7.10;99.90
53294;DHT22;39181;53.440;5.644;2024-03-08T15:42:57;7.10;99.90
53294;DHT22;39181;53.440;5.644;2024-03-08T15:45:23;7.10;99.90
53294;DHT22;39181;53.440;5.644;2024-03-08T15:47:51;7.10;99.90
53294;DHT22;39181;53.440;5.644;2024-03-08T15:50:17;7.10;99.90
53294;DHT22;39181;53.440;5.644;2024-03-08T15:52:44;7.10;99.90
53294;DHT22;39181;53.440;5.644;2024-03-08T15:55:14;7.10;99.90
53294;DHT22;39181;53.440;5.644;2024-03-08T15:57:47;6.90;99.90